sensor_id;sensor_type;location;lat;lon;timestamp;P1;durP1;ratioP1;P2;durP2;ratioP2
9934;SDS011;5006;41.828;23.478;2023-03-23T00:00:59;2.88;;;2.67;;
9934;SDS011;5006;41.828;23.478;2023-03-23T00:02:04;2.92;;;2.55;;
9934;SDS011;5006;41.828;23.478;2023-03-23T00:03:10;2.90;;;2.60;;
9934;SDS011;5006;41.828;23.478;2023-03-23T00:04:16;3.40;;;3.10;;
9934;SDS011;5006;41.828;23.478;2023-03-23T00:05:22;3.97;;;3.20;;
9934;SDS011;5006;41.828;23.478;2023-03-23T00:06:28;3.45;;;3.10;;
9934;SDS011;5006;41.828;23.478;2023-03-23T00:07:36;3.33;;;2.83;;
9934;SDS011;5006;41.828;23.478;2023-03-23T00:08:41;3.22;;;2.92;;
9934;SDS011;5006;41.828;23.478;2023-03-23T00:09:49;4.15;;;3.50;;
9934;SDS011;5006;41.828;23.478;2023-03-23T00:10:57;3.70;;;3.20;;
9934;SDS011;5006;41.828;23.478;2023-03-23T00:12:05;3.65;;;3.25;;
9934;SDS011;5006;41.828;23.478;2023-03-23T00:13:10;3.47;;;2.90;;
9934;SDS011;5006;41.828;23.478;2023-03-23T00:14:17;2.90;;;2.58;;
9934;SDS011;5006;41.828;23.478;2023-03-23T00:15:26;3.55;;;3.25;;
9934;SDS011;5006;41.828;23.478;2023-03-23T00:16:31;5.75;;;4.35;;
9934;SDS011;5006;41.828;23.478;2023-03-23T00:17:41;4.05;;;3.58;;
9934;SDS011;5006;41.828;23.478;2023-03-23T00:18:48;3.85;;;3.50;;
9934;SDS011;5006;41.828;23.478;2023-03-23T00:19:57;4.13;;;3.72;;
9934;SDS011;5006;41.828;23.478;2023-03-23T00:21:03;4.20;;;3.75;;
9934;SDS011;5006;41.828;23.478;2023-03-23T00:22:08;4.82;;;4.25;;
9934;SDS011;5006;41.828;23.478;2023-03-23T00:23:13;5.28;;;4.78;;
9934;SDS011;5006;41.828;23.478;2023-03-23T00:24:23;4.82;;;4.18;;
9934;SDS011;5006;41.828;23.478;2023-03-23T00:25:28;5.28;;;4.78;;
9934;SDS011;5006;41.828;23.478;2023-03-23T00:26:33;5.35;;;4.85;;
9934;SDS011;5006;41.828;23.478;2023-03-23T00:27:39;4.88;;;4.38;;
9934;SDS011;5006;41.828;23.478;2023-03-23T00:28:47;4.90;;;4.35;;
9934;SDS011;5006;41.828;23.478;2023-03-23T00:29:53;4.68;;;3.70;;
9934;SDS011;5006;41.828;23.478;2023-03-23T00:31:01;4.40;;;4.00;;
9934;SDS011;5006;41.828;23.478;2023-03-23T00:32:06;5.05;;;4.50;;
9934;SDS011;5006;41.828;23.478;2023-03-23T00:33:16;5.38;;;4.28;;
9934;SDS011;5006;41.828;23.478;2023-03-23T00:34:22;4.55;;;4.10;;
9934;SDS011;5006;41.828;23.478;2023-03-23T00:35:30;4.70;;;4.30;;
9934;SDS011;5006;41.828;23.478;2023-03-23T00:36:35;3.95;;;3.47;;
9934;SDS011;5006;41.828;23.478;2023-03-23T00:37:47;3.85;;;3.45;;
9934;SDS011;5006;41.828;23.478;2023-03-23T00:38:53;4.88;;;3.33;;
9934;SDS011;5006;41.828;23.478;2023-03-23T00:39:58;3.72;;;3.28;;
9934;SDS011;5006;41.828;23.478;2023-03-23T00:41:06;2.90;;;2.60;;
9934;SDS011;5006;41.828;23.478;2023-03-23T00:42:11;3.05;;;2.72;;
9934;SDS011;5006;41.828;23.478;2023-03-23T00:43:18;2.58;;;2.38;;
9934;SDS011;5006;41.828;23.478;2023-03-23T00:44:24;2.60;;;2.40;;
9934;SDS011;5006;41.828;23.478;2023-03-23T00:45:29;2.83;;;2.50;;
9934;SDS011;5006;41.828;23.478;2023-03-23T00:46:35;2.70;;;2.50;;
9934;SDS011;5006;41.828;23.478;2023-03-23T00:47:48;2.55;;;2.35;;
9934;SDS011;5006;41.828;23.478;2023-03-23T00:48:55;2.75;;;2.40;;
9934;SDS011;5006;41.828;23.478;2023-03-23T00:50:00;2.55;;;2.35;;
9934;SDS011;5006;41.828;23.478;2023-03-23T00:51:06;2.67;;;2.47;;
9934;SDS011;5006;41.828;23.478;2023-03-23T00:52:15;3.13;;;2.30;;
9934;SDS011;5006;41.828;23.478;2023-03-23T00:53:21;2.30;;;2.10;;
9934;SDS011;5006;41.828;23.478;2023-03-23T00:54:27;3.97;;;2.42;;
9934;SDS011;5006;41.828;23.478;2023-03-23T00:55:32;2.15;;;1.95;;
9934;SDS011;5006;41.828;23.478;2023-03-23T00:56:39;3.50;;;2.97;;
9934;SDS011;5006;41.828;23.478;2023-03-23T00:57:43;3.97;;;3.22;;
9934;SDS011;5006;41.828;23.478;2023-03-23T00:58:49;3.13;;;2.83;;
9934;SDS011;5006;41.828;23.478;2023-03-23T00:59:54;3.67;;;3.38;;
9934;SDS011;5006;41.828;23.478;2023-03-23T01:01:00;7.50;;;6.20;;
9934;SDS011;5006;41.828;23.478;2023-03-23T01:02:04;5.35;;;4.60;;
9934;SDS011;5006;41.828;23.478;2023-03-23T01:03:10;4.32;;;3.92;;
9934;SDS011;5006;41.828;23.478;2023-03-23T01:04:22;6.43;;;5.43;;
9934;SDS011;5006;41.828;23.478;2023-03-23T01:05:27;6.90;;;5.60;;
9934;SDS011;5006;41.828;23.478;2023-03-23T01:06:38;5.55;;;4.97;;
9934;SDS011;5006;41.828;23.478;2023-03-23T01:07:47;4.45;;;4.03;;
9934;SDS011;5006;41.828;23.478;2023-03-23T01:08:52;4.53;;;3.20;;
9934;SDS011;5006;41.828;23.478;2023-03-23T01:09:58;3.30;;;3.00;;
9934;SDS011;5006;41.828;23.478;2023-03-23T01:11:05;3.00;;;2.40;;
9934;SDS011;5006;41.828;23.478;2023-03-23T01:12:11;4.20;;;3.80;;
9934;SDS011;5006;41.828;23.478;2023-03-23T01:13:17;6.00;;;5.40;;
9934;SDS011;5006;41.828;23.478;2023-03-23T01:14:22;6.90;;;6.20;;
9934;SDS011;5006;41.828;23.478;2023-03-23T01:15:29;8.52;;;7.28;;
9934;SDS011;5006;41.828;23.478;2023-03-23T01:16:34;6.35;;;5.60;;
9934;SDS011;5006;41.828;23.478;2023-03-23T01:17:41;4.53;;;4.00;;
9934;SDS011;5006;41.828;23.478;2023-03-23T01:18:46;4.05;;;3.65;;
9934;SDS011;5006;41.828;23.478;2023-03-23T01:19:52;4.22;;;3.83;;
9934;SDS011;5006;41.828;23.478;2023-03-23T01:20:56;3.33;;;3.03;;
9934;SDS011;5006;41.828;23.478;2023-03-23T01:22:03;3.60;;;3.30;;
9934;SDS011;5006;41.828;23.478;2023-03-23T01:23:08;4.72;;;4.32;;
9934;SDS011;5006;41.828;23.478;2023-03-23T01:24:14;6.95;;;6.25;;
9934;SDS011;5006;41.828;23.478;2023-03-23T01:25:19;8.90;;;7.63;;
9934;SDS011;5006;41.828;23.478;2023-03-23T01:26:26;10.00;;;8.13;;
9934;SDS011;5006;41.828;23.478;2023-03-23T01:27:32;10.27;;;9.10;;
9934;SDS011;5006;41.828;23.478;2023-03-23T01:28:38;6.22;;;4.85;;
9934;SDS011;5006;41.828;23.478;2023-03-23T01:29:44;11.00;;;8.60;;
9934;SDS011;5006;41.828;23.478;2023-03-23T01:30:49;34.83;;;12.32;;
9934;SDS011;5006;41.828;23.478;2023-03-23T01:31:55;5.53;;;4.90;;
9934;SDS011;5006;41.828;23.478;2023-03-23T01:33:01;10.30;;;7.45;;
9934;SDS011;5006;41.828;23.478;2023-03-23T01:34:05;7.30;;;6.10;;
9934;SDS011;5006;41.828;23.478;2023-03-23T01:35:12;7.93;;;6.20;;
9934;SDS011;5006;41.828;23.478;2023-03-23T01:36:18;5.50;;;5.00;;
9934;SDS011;5006;41.828;23.478;2023-03-23T01:37:27;7.07;;;6.03;;
9934;SDS011;5006;41.828;23.478;2023-03-23T01:38:34;5.95;;;5.40;;
9934;SDS011;5006;41.828;23.478;2023-03-23T01:39:41;5.47;;;4.97;;
9934;SDS011;5006;41.828;23.478;2023-03-23T01:40:46;5.55;;;5.05;;
9934;SDS011;5006;41.828;23.478;2023-03-23T01:41:52;7.07;;;5.03;;
9934;SDS011;5006;41.828;23.478;2023-03-23T01:42:59;5.15;;;4.65;;
9934;SDS011;5006;41.828;23.478;2023-03-23T01:44:05;4.57;;;4.18;;
9934;SDS011;5006;41.828;23.478;2023-03-23T01:45:24;4.75;;;4.35;;
9934;SDS011;5006;41.828;23.478;2023-03-23T01:46:39;5.07;;;4.57;;
9934;SDS011;5006;41.828;23.478;2023-03-23T01:47:43;5.13;;;4.63;;
9934;SDS011;5006;41.828;23.478;2023-03-23T01:48:51;7.57;;;5.60;;
9934;SDS011;5006;41.828;23.478;2023-03-23T01:49:58;5.00;;;4.50;;
9934;SDS011;5006;41.828;23.478;2023-03-23T01:51:04;4.70;;;4.20;;
9934;SDS011;5006;41.828;23.478;2023-03-23T01:52:14;4.63;;;4.22;;
9934;SDS011;5006;41.828;23.478;2023-03-23T01:53:30;5.53;;;4.20;;
9934;SDS011;5006;41.828;23.478;2023-03-23T01:54:39;4.15;;;3.72;;
9934;SDS011;5006;41.828;23.478;2023-03-23T01:55:49;5.07;;;4.00;;
9934;SDS011;5006;41.828;23.478;2023-03-23T01:56:59;5.60;;;4.03;;
9934;SDS011;5006;41.828;23.478;2023-03-23T01:58:08;3.92;;;3.53;;
9934;SDS011;5006;41.828;23.478;2023-03-23T01:59:16;4.75;;;3.50;;
9934;SDS011;5006;41.828;23.478;2023-03-23T02:00:25;3.95;;;3.55;;
9934;SDS011;5006;41.828;23.478;2023-03-23T02:01:32;3.50;;;3.20;;
9934;SDS011;5006;41.828;23.478;2023-03-23T02:02:41;3.60;;;3.30;;
9934;SDS011;5006;41.828;23.478;2023-03-23T02:03:48;4.25;;;3.53;;
9934;SDS011;5006;41.828;23.478;2023-03-23T02:04:55;5.15;;;3.55;;
9934;SDS011;5006;41.828;23.478;2023-03-23T02:06:05;3.70;;;3.40;;
9934;SDS011;5006;41.828;23.478;2023-03-23T02:07:23;3.70;;;3.28;;
9934;SDS011;5006;41.828;23.478;2023-03-23T02:08:32;6.68;;;3.10;;
9934;SDS011;5006;41.828;23.478;2023-03-23T02:09:39;4.28;;;3.60;;
9934;SDS011;5006;41.828;23.478;2023-03-23T02:10:44;4.78;;;3.40;;
9934;SDS011;5006;41.828;23.478;2023-03-23T02:11:50;4.70;;;3.80;;
9934;SDS011;5006;41.828;23.478;2023-03-23T02:12:56;4.63;;;3.58;;
9934;SDS011;5006;41.828;23.478;2023-03-23T02:14:03;3.90;;;3.45;;
9934;SDS011;5006;41.828;23.478;2023-03-23T02:15:09;3.38;;;3.08;;
9934;SDS011;5006;41.828;23.478;2023-03-23T02:16:17;3.90;;;3.15;;
9934;SDS011;5006;41.828;23.478;2023-03-23T02:17:32;3.60;;;3.00;;
9934;SDS011;5006;41.828;23.478;2023-03-23T02:18:50;3.35;;;3.05;;
9934;SDS011;5006;41.828;23.478;2023-03-23T02:20:10;3.80;;;3.40;;
9934;SDS011;5006;41.828;23.478;2023-03-23T02:24:55;3.45;;;3.00;;
9934;SDS011;5006;41.828;23.478;2023-03-23T02:26:08;3.78;;;3.17;;
9934;SDS011;5006;41.828;23.478;2023-03-23T02:27:36;3.55;;;3.00;;
9934;SDS011;5006;41.828;23.478;2023-03-23T02:29:05;3.30;;;3.00;;
9934;SDS011;5006;41.828;23.478;2023-03-23T02:30:24;3.65;;;3.20;;
9934;SDS011;5006;41.828;23.478;2023-03-23T02:31:53;4.25;;;3.15;;
9934;SDS011;5006;41.828;23.478;2023-03-23T02:34:52;3.72;;;3.08;;
9934;SDS011;5006;41.828;23.478;2023-03-23T02:36:02;3.60;;;3.00;;
9934;SDS011;5006;41.828;23.478;2023-03-23T02:37:14;5.20;;;3.25;;
9934;SDS011;5006;41.828;23.478;2023-03-23T02:38:28;3.65;;;3.15;;
9934;SDS011;5006;41.828;23.478;2023-03-23T02:39:37;3.85;;;3.13;;
9934;SDS011;5006;41.828;23.478;2023-03-23T02:40:51;3.67;;;3.38;;
9934;SDS011;5006;41.828;23.478;2023-03-23T02:42:00;4.63;;;3.40;;
9934;SDS011;5006;41.828;23.478;2023-03-23T02:43:11;4.35;;;3.03;;
9934;SDS011;5006;41.828;23.478;2023-03-23T02:44:18;3.35;;;3.05;;
9934;SDS011;5006;41.828;23.478;2023-03-23T02:45:25;4.05;;;3.13;;
9934;SDS011;5006;41.828;23.478;2023-03-23T02:46:33;3.28;;;2.97;;
9934;SDS011;5006;41.828;23.478;2023-03-23T02:47:40;4.63;;;3.13;;
9934;SDS011;5006;41.828;23.478;2023-03-23T02:48:47;3.25;;;2.92;;
9934;SDS011;5006;41.828;23.478;2023-03-23T02:49:55;3.00;;;2.70;;
9934;SDS011;5006;41.828;23.478;2023-03-23T02:51:03;3.00;;;2.67;;
9934;SDS011;5006;41.828;23.478;2023-03-23T02:52:11;3.03;;;2.70;;
9934;SDS011;5006;41.828;23.478;2023-03-23T02:53:20;3.10;;;2.80;;
9934;SDS011;5006;41.828;23.478;2023-03-23T02:54:30;3.20;;;2.90;;
9934;SDS011;5006;41.828;23.478;2023-03-23T02:55:34;3.20;;;2.90;;
9934;SDS011;5006;41.828;23.478;2023-03-23T02:56:45;3.10;;;2.80;;
9934;SDS011;5006;41.828;23.478;2023-03-23T02:57:58;3.03;;;2.83;;
9934;SDS011;5006;41.828;23.478;2023-03-23T02:59:06;3.20;;;2.90;;
9934;SDS011;5006;41.828;23.478;2023-03-23T03:00:12;2.90;;;2.70;;
9934;SDS011;5006;41.828;23.478;2023-03-23T03:02:53;3.13;;;2.80;;
9934;SDS011;5006;41.828;23.478;2023-03-23T03:04:03;2.72;;;2.53;;
9934;SDS011;5006;41.828;23.478;2023-03-23T03:05:15;2.70;;;2.50;;
9934;SDS011;5006;41.828;23.478;2023-03-23T03:06:26;2.45;;;2.20;;
9934;SDS011;5006;41.828;23.478;2023-03-23T03:07:43;2.90;;;2.58;;
9934;SDS011;5006;41.828;23.478;2023-03-23T03:09:01;2.75;;;2.50;;
9934;SDS011;5006;41.828;23.478;2023-03-23T03:10:13;2.50;;;2.30;;
9934;SDS011;5006;41.828;23.478;2023-03-23T03:11:25;2.63;;;2.42;;
9934;SDS011;5006;41.828;23.478;2023-03-23T03:12:31;3.00;;;2.72;;
9934;SDS011;5006;41.828;23.478;2023-03-23T03:13:45;2.90;;;2.70;;
9934;SDS011;5006;41.828;23.478;2023-03-23T03:14:53;2.78;;;2.58;;
9934;SDS011;5006;41.828;23.478;2023-03-23T03:16:06;2.50;;;2.30;;
9934;SDS011;5006;41.828;23.478;2023-03-23T03:17:19;2.72;;;2.53;;
9934;SDS011;5006;41.828;23.478;2023-03-23T03:18:27;3.67;;;2.60;;
9934;SDS011;5006;41.828;23.478;2023-03-23T03:19:40;3.22;;;2.40;;
9934;SDS011;5006;41.828;23.478;2023-03-23T03:20:49;2.53;;;2.33;;
9934;SDS011;5006;41.828;23.478;2023-03-23T03:22:01;2.40;;;2.20;;
9934;SDS011;5006;41.828;23.478;2023-03-23T03:23:15;2.20;;;2.00;;
9934;SDS011;5006;41.828;23.478;2023-03-23T03:24:23;3.00;;;2.63;;
9934;SDS011;5006;41.828;23.478;2023-03-23T03:25:29;3.20;;;2.22;;
9934;SDS011;5006;41.828;23.478;2023-03-23T03:26:36;2.30;;;2.10;;
9934;SDS011;5006;41.828;23.478;2023-03-23T03:27:57;2.38;;;2.17;;
9934;SDS011;5006;41.828;23.478;2023-03-23T03:29:20;2.65;;;1.90;;
9934;SDS011;5006;41.828;23.478;2023-03-23T03:30:30;2.38;;;2.00;;
9934;SDS011;5006;41.828;23.478;2023-03-23T03:31:40;2.65;;;2.17;;
9934;SDS011;5006;41.828;23.478;2023-03-23T03:32:50;2.38;;;2.10;;
9934;SDS011;5006;41.828;23.478;2023-03-23T03:34:00;2.25;;;2.08;;
9934;SDS011;5006;41.828;23.478;2023-03-23T03:35:07;2.08;;;1.90;;
9934;SDS011;5006;41.828;23.478;2023-03-23T03:36:14;2.20;;;2.00;;
9934;SDS011;5006;41.828;23.478;2023-03-23T03:37:21;2.33;;;2.13;;
9934;SDS011;5006;41.828;23.478;2023-03-23T03:38:29;2.50;;;2.30;;
9934;SDS011;5006;41.828;23.478;2023-03-23T03:39:34;2.83;;;2.53;;
9934;SDS011;5006;41.828;23.478;2023-03-23T03:40:41;15.88;;;11.65;;
9934;SDS011;5006;41.828;23.478;2023-03-23T03:41:48;14.90;;;11.98;;
9934;SDS011;5006;41.828;23.478;2023-03-23T03:42:53;14.93;;;11.73;;
9934;SDS011;5006;41.828;23.478;2023-03-23T03:43:58;14.45;;;11.18;;
9934;SDS011;5006;41.828;23.478;2023-03-23T03:45:03;13.65;;;10.70;;
9934;SDS011;5006;41.828;23.478;2023-03-23T03:46:09;14.95;;;11.43;;
9934;SDS011;5006;41.828;23.478;2023-03-23T03:47:14;11.70;;;10.45;;
9934;SDS011;5006;41.828;23.478;2023-03-23T03:48:20;13.10;;;10.60;;
9934;SDS011;5006;41.828;23.478;2023-03-23T03:49:25;12.48;;;10.32;;
9934;SDS011;5006;41.828;23.478;2023-03-23T03:50:33;13.02;;;10.32;;
9934;SDS011;5006;41.828;23.478;2023-03-23T03:51:39;13.70;;;10.25;;
9934;SDS011;5006;41.828;23.478;2023-03-23T03:52:48;14.20;;;10.55;;
9934;SDS011;5006;41.828;23.478;2023-03-23T03:53:54;11.38;;;9.20;;
9934;SDS011;5006;41.828;23.478;2023-03-23T03:54:59;12.77;;;9.57;;
9934;SDS011;5006;41.828;23.478;2023-03-23T03:56:07;14.20;;;10.32;;
9934;SDS011;5006;41.828;23.478;2023-03-23T03:57:20;13.48;;;11.18;;
9934;SDS011;5006;41.828;23.478;2023-03-23T03:58:43;14.63;;;10.38;;
9934;SDS011;5006;41.828;23.478;2023-03-23T04:00:03;14.52;;;9.52;;
9934;SDS011;5006;41.828;23.478;2023-03-23T04:01:19;12.95;;;9.18;;
9934;SDS011;5006;41.828;23.478;2023-03-23T04:02:26;13.13;;;9.05;;
9934;SDS011;5006;41.828;23.478;2023-03-23T04:03:32;11.45;;;8.60;;
9934;SDS011;5006;41.828;23.478;2023-03-23T04:04:51;12.30;;;9.02;;
9934;SDS011;5006;41.828;23.478;2023-03-23T04:05:58;11.77;;;9.07;;
9934;SDS011;5006;41.828;23.478;2023-03-23T04:07:04;9.93;;;8.15;;
9934;SDS011;5006;41.828;23.478;2023-03-23T04:08:09;10.38;;;7.47;;
9934;SDS011;5006;41.828;23.478;2023-03-23T04:09:15;9.35;;;7.20;;
9934;SDS011;5006;41.828;23.478;2023-03-23T04:10:20;8.95;;;7.20;;
9934;SDS011;5006;41.828;23.478;2023-03-23T04:11:31;9.55;;;7.55;;
9934;SDS011;5006;41.828;23.478;2023-03-23T04:12:54;7.18;;;5.20;;
9934;SDS011;5006;41.828;23.478;2023-03-23T04:14:19;4.28;;;3.53;;
9934;SDS011;5006;41.828;23.478;2023-03-23T04:15:24;3.88;;;3.30;;
9934;SDS011;5006;41.828;23.478;2023-03-23T04:16:30;4.60;;;3.45;;
9934;SDS011;5006;41.828;23.478;2023-03-23T04:17:38;4.75;;;3.90;;
9934;SDS011;5006;41.828;23.478;2023-03-23T04:18:45;3.80;;;3.25;;
9934;SDS011;5006;41.828;23.478;2023-03-23T04:19:52;3.30;;;3.00;;
9934;SDS011;5006;41.828;23.478;2023-03-23T04:21:03;3.75;;;3.20;;
9934;SDS011;5006;41.828;23.478;2023-03-23T04:22:11;4.50;;;3.38;;
9934;SDS011;5006;41.828;23.478;2023-03-23T04:23:16;3.17;;;2.88;;
9934;SDS011;5006;41.828;23.478;2023-03-23T04:24:24;3.00;;;2.60;;
9934;SDS011;5006;41.828;23.478;2023-03-23T04:25:29;2.60;;;2.30;;
9934;SDS011;5006;41.828;23.478;2023-03-23T04:26:37;2.97;;;2.22;;
9934;SDS011;5006;41.828;23.478;2023-03-23T04:27:52;3.72;;;3.15;;
9934;SDS011;5006;41.828;23.478;2023-03-23T04:29:07;6.93;;;5.07;;
9934;SDS011;5006;41.828;23.478;2023-03-23T04:30:13;13.43;;;8.18;;
9934;SDS011;5006;41.828;23.478;2023-03-23T04:31:23;15.05;;;10.70;;
9934;SDS011;5006;41.828;23.478;2023-03-23T04:32:32;22.20;;;15.43;;
9934;SDS011;5006;41.828;23.478;2023-03-23T04:33:38;34.92;;;23.02;;
9934;SDS011;5006;41.828;23.478;2023-03-23T04:34:45;67.35;;;41.17;;
9934;SDS011;5006;41.828;23.478;2023-03-23T04:35:50;59.28;;;36.22;;
9934;SDS011;5006;41.828;23.478;2023-03-23T04:37:07;53.22;;;32.97;;
9934;SDS011;5006;41.828;23.478;2023-03-23T04:38:14;61.22;;;36.47;;
9934;SDS011;5006;41.828;23.478;2023-03-23T04:39:23;64.35;;;36.55;;
9934;SDS011;5006;41.828;23.478;2023-03-23T04:40:35;68.50;;;39.15;;
9934;SDS011;5006;41.828;23.478;2023-03-23T04:41:51;43.28;;;27.15;;
9934;SDS011;5006;41.828;23.478;2023-03-23T04:43:22;29.58;;;22.67;;
9934;SDS011;5006;41.828;23.478;2023-03-23T04:44:43;35.55;;;28.60;;
9934;SDS011;5006;41.828;23.478;2023-03-23T04:46:01;37.97;;;32.30;;
9934;SDS011;5006;41.828;23.478;2023-03-23T04:47:09;37.78;;;27.70;;
9934;SDS011;5006;41.828;23.478;2023-03-23T04:49:51;25.90;;;18.73;;
9934;SDS011;5006;41.828;23.478;2023-03-23T04:51:14;22.02;;;16.77;;
9934;SDS011;5006;41.828;23.478;2023-03-23T04:52:24;20.33;;;14.40;;
9934;SDS011;5006;41.828;23.478;2023-03-23T04:53:33;18.60;;;13.40;;
9934;SDS011;5006;41.828;23.478;2023-03-23T04:54:39;14.68;;;10.43;;
9934;SDS011;5006;41.828;23.478;2023-03-23T04:55:46;14.00;;;10.18;;
9934;SDS011;5006;41.828;23.478;2023-03-23T04:56:54;12.13;;;10.23;;
9934;SDS011;5006;41.828;23.478;2023-03-23T04:57:58;10.30;;;8.90;;
9934;SDS011;5006;41.828;23.478;2023-03-23T04:59:26;10.15;;;8.60;;
9934;SDS011;5006;41.828;23.478;2023-03-23T05:00:52;7.05;;;5.47;;
9934;SDS011;5006;41.828;23.478;2023-03-23T05:01:59;5.75;;;5.03;;
9934;SDS011;5006;41.828;23.478;2023-03-23T05:03:06;4.75;;;4.25;;
9934;SDS011;5006;41.828;23.478;2023-03-23T05:04:13;4.93;;;4.43;;
9934;SDS011;5006;41.828;23.478;2023-03-23T05:05:25;4.80;;;4.22;;
9934;SDS011;5006;41.828;23.478;2023-03-23T05:06:32;4.63;;;4.22;;
9934;SDS011;5006;41.828;23.478;2023-03-23T05:07:43;5.65;;;4.60;;
9934;SDS011;5006;41.828;23.478;2023-03-23T05:08:53;4.32;;;3.92;;
9934;SDS011;5006;41.828;23.478;2023-03-23T05:10:00;4.50;;;4.10;;
9934;SDS011;5006;41.828;23.478;2023-03-23T05:11:08;4.05;;;3.63;;
9934;SDS011;5006;41.828;23.478;2023-03-23T05:12:16;4.05;;;3.67;;
9934;SDS011;5006;41.828;23.478;2023-03-23T05:13:34;3.78;;;3.47;;
9934;SDS011;5006;41.828;23.478;2023-03-23T05:14:39;3.72;;;3.42;;
9934;SDS011;5006;41.828;23.478;2023-03-23T05:15:48;4.88;;;3.80;;
9934;SDS011;5006;41.828;23.478;2023-03-23T05:16:54;4.25;;;3.85;;
9934;SDS011;5006;41.828;23.478;2023-03-23T05:17:59;4.30;;;3.90;;
9934;SDS011;5006;41.828;23.478;2023-03-23T05:19:05;4.88;;;3.80;;
9934;SDS011;5006;41.828;23.478;2023-03-23T05:20:11;4.45;;;4.05;;
9934;SDS011;5006;41.828;23.478;2023-03-23T05:21:23;5.28;;;3.88;;
9934;SDS011;5006;41.828;23.478;2023-03-23T05:22:32;4.85;;;4.20;;
9934;SDS011;5006;41.828;23.478;2023-03-23T05:23:40;3.53;;;3.17;;
9934;SDS011;5006;41.828;23.478;2023-03-23T05:24:55;3.47;;;3.17;;
9934;SDS011;5006;41.828;23.478;2023-03-23T05:26:00;4.07;;;3.67;;
9934;SDS011;5006;41.828;23.478;2023-03-23T05:27:07;3.15;;;2.85;;
9934;SDS011;5006;41.828;23.478;2023-03-23T05:28:16;5.35;;;4.78;;
9934;SDS011;5006;41.828;23.478;2023-03-23T05:29:29;7.07;;;6.10;;
9934;SDS011;5006;41.828;23.478;2023-03-23T05:30:37;8.18;;;6.55;;
9934;SDS011;5006;41.828;23.478;2023-03-23T05:31:45;7.10;;;6.50;;
9934;SDS011;5006;41.828;23.478;2023-03-23T05:32:52;8.60;;;7.70;;
9934;SDS011;5006;41.828;23.478;2023-03-23T05:34:18;13.10;;;11.80;;
9934;SDS011;5006;41.828;23.478;2023-03-23T05:35:27;10.98;;;9.55;;
9934;SDS011;5006;41.828;23.478;2023-03-23T05:36:32;7.68;;;6.90;;
9934;SDS011;5006;41.828;23.478;2023-03-23T05:37:49;9.10;;;8.20;;
9934;SDS011;5006;41.828;23.478;2023-03-23T05:39:01;10.75;;;9.10;;
9934;SDS011;5006;41.828;23.478;2023-03-23T05:40:22;13.63;;;12.02;;
9934;SDS011;5006;41.828;23.478;2023-03-23T05:41:50;12.93;;;11.10;;
9934;SDS011;5006;41.828;23.478;2023-03-23T05:42:56;9.18;;;7.95;;
9934;SDS011;5006;41.828;23.478;2023-03-23T05:44:17;17.40;;;12.30;;
9934;SDS011;5006;41.828;23.478;2023-03-23T05:45:26;16.90;;;14.38;;
9934;SDS011;5006;41.828;23.478;2023-03-23T05:46:31;17.60;;;14.90;;
9934;SDS011;5006;41.828;23.478;2023-03-23T05:47:39;31.42;;;27.65;;
9934;SDS011;5006;41.828;23.478;2023-03-23T05:48:51;64.38;;;51.70;;
9934;SDS011;5006;41.828;23.478;2023-03-23T05:49:59;85.03;;;67.28;;
9934;SDS011;5006;41.828;23.478;2023-03-23T05:52:31;77.18;;;60.13;;
9934;SDS011;5006;41.828;23.478;2023-03-23T05:53:38;72.95;;;64.85;;
9934;SDS011;5006;41.828;23.478;2023-03-23T05:54:46;72.32;;;60.92;;
9934;SDS011;5006;41.828;23.478;2023-03-23T05:55:51;68.82;;;58.03;;
9934;SDS011;5006;41.828;23.478;2023-03-23T05:57:13;71.05;;;58.10;;
9934;SDS011;5006;41.828;23.478;2023-03-23T05:58:24;72.70;;;60.53;;
9934;SDS011;5006;41.828;23.478;2023-03-23T05:59:29;86.15;;;66.28;;
9934;SDS011;5006;41.828;23.478;2023-03-23T06:00:37;77.60;;;63.25;;
9934;SDS011;5006;41.828;23.478;2023-03-23T06:01:57;77.03;;;60.85;;
9934;SDS011;5006;41.828;23.478;2023-03-23T06:03:03;74.13;;;61.13;;
9934;SDS011;5006;41.828;23.478;2023-03-23T06:04:17;77.05;;;62.15;;
9934;SDS011;5006;41.828;23.478;2023-03-23T06:05:33;59.20;;;50.10;;
9934;SDS011;5006;41.828;23.478;2023-03-23T06:06:39;58.08;;;51.65;;
9934;SDS011;5006;41.828;23.478;2023-03-23T06:07:47;44.13;;;39.33;;
9934;SDS011;5006;41.828;23.478;2023-03-23T06:08:53;40.28;;;35.38;;
9934;SDS011;5006;41.828;23.478;2023-03-23T06:10:12;39.63;;;35.30;;
9934;SDS011;5006;41.828;23.478;2023-03-23T06:11:22;48.92;;;41.90;;
9934;SDS011;5006;41.828;23.478;2023-03-23T06:12:57;62.75;;;46.38;;
9934;SDS011;5006;41.828;23.478;2023-03-23T06:14:10;71.93;;;54.65;;
9934;SDS011;5006;41.828;23.478;2023-03-23T06:15:16;62.92;;;51.42;;
9934;SDS011;5006;41.828;23.478;2023-03-23T06:16:37;67.82;;;53.05;;
9934;SDS011;5006;41.828;23.478;2023-03-23T06:17:46;67.72;;;52.08;;
9934;SDS011;5006;41.828;23.478;2023-03-23T06:18:52;69.32;;;54.85;;
9934;SDS011;5006;41.828;23.478;2023-03-23T06:20:08;81.63;;;64.97;;
9934;SDS011;5006;41.828;23.478;2023-03-23T06:21:16;84.07;;;63.92;;
9934;SDS011;5006;41.828;23.478;2023-03-23T06:22:31;84.68;;;68.25;;
9934;SDS011;5006;41.828;23.478;2023-03-23T06:23:49;82.55;;;64.13;;
9934;SDS011;5006;41.828;23.478;2023-03-23T06:24:57;99.10;;;78.28;;
9934;SDS011;5006;41.828;23.478;2023-03-23T06:26:12;111.70;;;87.75;;
9934;SDS011;5006;41.828;23.478;2023-03-23T06:27:23;114.85;;;88.00;;
9934;SDS011;5006;41.828;23.478;2023-03-23T06:28:28;109.78;;;84.93;;
9934;SDS011;5006;41.828;23.478;2023-03-23T06:29:34;97.63;;;77.53;;
9934;SDS011;5006;41.828;23.478;2023-03-23T06:30:39;105.50;;;80.22;;
9934;SDS011;5006;41.828;23.478;2023-03-23T06:31:45;105.20;;;81.90;;
9934;SDS011;5006;41.828;23.478;2023-03-23T06:32:52;103.15;;;82.43;;
9934;SDS011;5006;41.828;23.478;2023-03-23T06:34:18;120.82;;;94.25;;
9934;SDS011;5006;41.828;23.478;2023-03-23T06:35:43;133.18;;;101.63;;
9934;SDS011;5006;41.828;23.478;2023-03-23T06:37:01;125.63;;;97.22;;
9934;SDS011;5006;41.828;23.478;2023-03-23T06:38:14;124.30;;;95.38;;
9934;SDS011;5006;41.828;23.478;2023-03-23T06:39:38;127.70;;;98.15;;
9934;SDS011;5006;41.828;23.478;2023-03-23T06:41:03;130.82;;;97.68;;
9934;SDS011;5006;41.828;23.478;2023-03-23T06:42:11;133.98;;;99.43;;
9934;SDS011;5006;41.828;23.478;2023-03-23T06:43:22;138.20;;;103.10;;
9934;SDS011;5006;41.828;23.478;2023-03-23T06:44:47;134.90;;;103.68;;
9934;SDS011;5006;41.828;23.478;2023-03-23T06:45:52;126.25;;;94.03;;
9934;SDS011;5006;41.828;23.478;2023-03-23T06:47:17;110.43;;;84.60;;
9934;SDS011;5006;41.828;23.478;2023-03-23T06:48:24;95.88;;;74.88;;
9934;SDS011;5006;41.828;23.478;2023-03-23T06:49:29;97.82;;;72.53;;
9934;SDS011;5006;41.828;23.478;2023-03-23T06:50:54;91.15;;;68.85;;
9934;SDS011;5006;41.828;23.478;2023-03-23T06:52:03;84.38;;;65.90;;
9934;SDS011;5006;41.828;23.478;2023-03-23T06:53:10;84.93;;;66.00;;
9934;SDS011;5006;41.828;23.478;2023-03-23T06:54:16;84.63;;;64.10;;
9934;SDS011;5006;41.828;23.478;2023-03-23T06:55:22;83.75;;;63.65;;
9934;SDS011;5006;41.828;23.478;2023-03-23T06:56:27;85.80;;;63.80;;
9934;SDS011;5006;41.828;23.478;2023-03-23T06:57:35;89.00;;;64.10;;
9934;SDS011;5006;41.828;23.478;2023-03-23T06:58:40;87.28;;;64.82;;
9934;SDS011;5006;41.828;23.478;2023-03-23T06:59:47;89.35;;;65.82;;
9934;SDS011;5006;41.828;23.478;2023-03-23T07:00:55;93.07;;;65.35;;
9934;SDS011;5006;41.828;23.478;2023-03-23T07:02:13;93.97;;;65.38;;
9934;SDS011;5006;41.828;23.478;2023-03-23T07:03:19;86.43;;;65.10;;
9934;SDS011;5006;41.828;23.478;2023-03-23T07:04:25;84.75;;;62.00;;
9934;SDS011;5006;41.828;23.478;2023-03-23T07:05:54;82.88;;;59.30;;
9934;SDS011;5006;41.828;23.478;2023-03-23T07:07:04;84.25;;;57.85;;
9934;SDS011;5006;41.828;23.478;2023-03-23T07:08:17;83.82;;;59.30;;
9934;SDS011;5006;41.828;23.478;2023-03-23T07:09:27;85.13;;;60.22;;
9934;SDS011;5006;41.828;23.478;2023-03-23T07:10:32;83.22;;;59.65;;
9934;SDS011;5006;41.828;23.478;2023-03-23T07:11:39;84.85;;;57.60;;